Time;durP1;ratioP1;P1;durP2;ratioP2;P2;SDS_P1;SDS_P2;PMS_P1;PMS_P2;Temp;Humidity;BMP_temperature;BMP_pressure;BME280_temperature;BME280_humidity;BME280_pressure;Samples;Min_cycle;Max_cycle;Signal;HPM_P1;HPM_P2
2023/03/26 00:01:04;;;;;;;;;;;10.20;99.90;;;;;;5027879;28;19953;-64
2023/03/26 00:03:31;;;;;;;;;;;10.20;99.90;;;;;;5026928;28;20326;-65
2023/03/26 00:06:04;;;;;;;;;;;10.20;99.90;;;;;;5023698;28;19913;-65
2023/03/26 00:08:30;;;;;;;;;;;10.20;99.90;;;;;;5026509;28;19921;-65
2023/03/26 00:10:55;;;;;;;;;;;10.20;99.90;;;;;;5027198;28;19967;-64
2023/03/26 00:13:21;;;;;;;;;;;10.20;99.90;;;;;;5028312;28;20290;-63
2023/03/26 00:15:47;;;;;;;;;;;10.20;99.90;;;;;;5028925;28;19921;-63
2023/03/26 00:18:12;;;;;;;;;;;10.10;99.90;;;;;;5031179;28;19917;-63
2023/03/26 00:20:40;;;;;;;;;;;10.10;99.90;;;;;;5031492;28;19913;-63
2023/03/26 00:23:06;;;;;;;;;;;10.10;99.90;;;;;;5031710;28;19917;-63
2023/03/26 00:25:33;;;;;;;;;;;9.90;99.90;;;;;;5027955;28;19920;-63
2023/03/26 00:27:58;;;;;;;;;;;10.00;99.90;;;;;;5030627;28;19936;-63
2023/03/26 00:30:23;;;;;;;;;;;10.00;99.90;;;;;;5025556;28;19925;-64
2023/03/26 00:32:49;;;;;;;;;;;10.00;99.90;;;;;;5029632;28;20302;-64
2023/03/26 00:35:15;;;;;;;;;;;10.00;99.90;;;;;;5028068;28;20310;-63
2023/03/26 00:37:42;;;;;;;;;;;10.00;99.90;;;;;;5028036;28;19913;-63
2023/03/26 00:40:09;;;;;;;;;;;10.00;99.90;;;;;;5029711;28;19913;-64
2023/03/26 00:42:36;;;;;;;;;;;10.00;99.90;;;;;;5028689;28;19913;-63
2023/03/26 00:45:02;;;;;;;;;;;9.90;99.90;;;;;;5024615;28;20334;-63
2023/03/26 00:47:28;;;;;;;;;;;9.90;99.90;;;;;;5027711;28;19935;-63
2023/03/26 00:49:54;;;;;;;;;;;9.90;99.90;;;;;;5027534;28;20375;-63
2023/03/26 00:52:20;;;;;;;;;;;9.90;99.90;;;;;;5029323;28;19932;-63
2023/03/26 00:54:46;;;;;;;;;;;9.80;99.90;;;;;;5027939;28;19913;-63
2023/03/26 00:57:12;;;;;;;;;;;9.80;99.90;;;;;;5028545;28;20004;-63
2023/03/26 00:59:38;;;;;;;;;;;9.70;99.90;;;;;;5027306;28;19999;-63
2023/03/26 01:02:05;;;;;;;;;;;9.70;99.90;;;;;;5026931;28;19913;-63
2023/03/26 01:04:33;;;;;;;;;;;9.60;99.90;;;;;;5026935;28;20367;-63
2023/03/26 01:07:20;;;;;;;;;;;9.50;99.90;;;;;;5030014;28;20046;-63
2023/03/26 01:09:49;;;;;;;;;;;9.50;99.90;;;;;;5028347;28;19917;-62
2023/03/26 01:12:17;;;;;;;;;;;9.40;99.90;;;;;;5028318;28;19920;-64
2023/03/26 01:14:43;;;;;;;;;;;9.30;99.90;;;;;;5029821;28;19917;-63
2023/03/26 01:17:11;;;;;;;;;;;9.30;99.90;;;;;;5029901;28;19959;-63
2023/03/26 01:19:55;;;;;;;;;;;9.10;99.90;;;;;;5023089;28;19917;-63
2023/03/26 01:22:23;;;;;;;;;;;9.10;99.90;;;;;;5025320;28;19999;-63
2023/03/26 01:24:55;;;;;;;;;;;9.10;99.90;;;;;;5027059;28;19975;-63
2023/03/26 01:27:31;;;;;;;;;;;9.00;99.90;;;;;;5027363;28;19952;-63
2023/03/26 01:30:16;;;;;;;;;;;8.80;99.90;;;;;;5033172;28;20627;-63
2023/03/26 01:32:51;;;;;;;;;;;8.70;99.90;;;;;;5027376;28;19928;-63
2023/03/26 01:35:20;;;;;;;;;;;8.60;99.90;;;;;;5027257;28;20386;-63
2023/03/26 01:38:09;;;;;;;;;;;8.70;99.90;;;;;;5024301;28;19920;-62
2023/03/26 01:40:48;;;;;;;;;;;8.60;99.90;;;;;;5024851;28;19924;-63
2023/03/26 01:43:21;;;;;;;;;;;8.60;99.90;;;;;;5029564;28;19921;-63
2023/03/26 01:45:47;;;;;;;;;;;8.60;99.90;;;;;;5031402;28;20000;-63
2023/03/26 01:48:13;;;;;;;;;;;8.50;99.90;;;;;;5032169;28;19921;-63
2023/03/26 01:50:39;;;;;;;;;;;8.50;99.90;;;;;;5031596;28;19936;-62
2023/03/26 01:53:04;;;;;;;;;;;8.40;99.90;;;;;;5030698;28;19947;-63
2023/03/26 01:55:56;;;;;;;;;;;8.40;99.90;;;;;;5028865;28;20008;-63
2023/03/26 01:58:26;;;;;;;;;;;8.50;99.90;;;;;;5028989;28;19923;-63
2023/03/26 02:01:07;;;;;;;;;;;8.60;99.90;;;;;;5038602;28;19913;-63
2023/03/26 02:03:40;;;;;;;;;;;8.60;99.90;;;;;;5028403;28;19917;-62
2023/03/26 02:06:10;;;;;;;;;;;8.70;99.90;;;;;;5029492;28;19960;-62
2023/03/26 02:08:41;;;;;;;;;;;8.70;99.90;;;;;;5028950;28;19917;-62
2023/03/26 02:11:12;;;;;;;;;;;8.70;99.90;;;;;;5030838;28;20280;-62
2023/03/26 02:13:38;;;;;;;;;;;8.80;99.90;;;;;;5027553;28;19928;-62
2023/03/26 02:16:05;;;;;;;;;;;8.80;99.90;;;;;;5030496;28;19913;-64
2023/03/26 02:18:37;;;;;;;;;;;8.90;99.90;;;;;;5026347;28;19958;-64
2023/03/26 02:21:14;;;;;;;;;;;8.90;99.90;;;;;;5032533;28;19923;-65
2023/03/26 02:23:45;;;;;;;;;;;8.90;99.90;;;;;;5027660;28;19913;-64
2023/03/26 02:26:11;;;;;;;;;;;9.00;99.90;;;;;;5026418;28;19920;-64
2023/03/26 02:28:37;;;;;;;;;;;9.00;99.90;;;;;;5029970;28;19913;-65
2023/03/26 02:31:03;;;;;;;;;;;9.00;99.90;;;;;;5031548;28;20347;-64
2023/03/26 02:33:28;;;;;;;;;;;9.00;99.90;;;;;;5029659;28;19916;-64
2023/03/26 02:35:58;;;;;;;;;;;9.00;99.90;;;;;;5033148;28;19960;-65
2023/03/26 02:38:25;;;;;;;;;;;9.10;99.90;;;;;;5030188;28;19921;-64
2023/03/26 02:40:51;;;;;;;;;;;9.10;99.90;;;;;;5029701;28;20322;-64
2023/03/26 02:43:17;;;;;;;;;;;9.10;99.90;;;;;;5029233;28;20153;-64
2023/03/26 02:45:42;;;;;;;;;;;9.00;99.90;;;;;;5029273;28;20000;-64
2023/03/26 02:48:08;;;;;;;;;;;9.00;99.90;;;;;;5030293;28;19917;-64
2023/03/26 02:50:35;;;;;;;;;;;9.00;99.90;;;;;;5028687;28;20434;-64
2023/03/26 02:53:01;;;;;;;;;;;9.10;99.90;;;;;;5030152;28;20419;-65
2023/03/26 02:55:26;;;;;;;;;;;9.10;99.90;;;;;;5029420;28;20020;-64
2023/03/26 02:57:52;;;;;;;;;;;9.10;99.90;;;;;;5028665;28;20019;-65
2023/03/26 03:00:20;;;;;;;;;;;9.20;99.90;;;;;;5029540;28;20403;-64
2023/03/26 03:02:46;;;;;;;;;;;9.00;99.90;;;;;;5030613;28;20298;-64
2023/03/26 03:05:12;;;;;;;;;;;9.00;99.90;;;;;;5026178;28;19913;-64
2023/03/26 03:07:39;;;;;;;;;;;9.00;99.90;;;;;;5029510;28;19924;-65
2023/03/26 03:10:07;;;;;;;;;;;9.00;99.90;;;;;;5030078;28;19913;-64
2023/03/26 03:12:32;;;;;;;;;;;9.00;99.90;;;;;;5029186;28;20487;-64
2023/03/26 03:14:58;;;;;;;;;;;8.90;99.90;;;;;;5027571;28;19913;-64
2023/03/26 03:17:23;;;;;;;;;;;8.90;99.90;;;;;;5029514;28;19917;-65
2023/03/26 03:19:49;;;;;;;;;;;8.90;99.90;;;;;;5030653;28;19913;-65
2023/03/26 03:22:14;;;;;;;;;;;9.00;99.90;;;;;;5028600;28;19991;-64
2023/03/26 03:24:42;;;;;;;;;;;9.00;99.90;;;;;;5028520;28;19918;-64
2023/03/26 03:27:08;;;;;;;;;;;9.00;99.90;;;;;;5024990;28;19913;-65
2023/03/26 03:29:34;;;;;;;;;;;9.00;99.90;;;;;;5026437;28;19913;-64
2023/03/26 03:31:59;;;;;;;;;;;9.00;99.90;;;;;;5027719;28;19968;-64
2023/03/26 03:34:25;;;;;;;;;;;9.00;99.90;;;;;;5028236;28;19999;-64
2023/03/26 03:36:51;;;;;;;;;;;9.00;99.90;;;;;;5029919;28;19913;-64
2023/03/26 03:39:16;;;;;;;;;;;9.10;99.90;;;;;;5028202;28;19921;-63
2023/03/26 03:41:42;;;;;;;;;;;9.10;99.90;;;;;;5024644;28;20010;-63
2023/03/26 03:44:07;;;;;;;;;;;9.10;99.90;;;;;;5025831;28;19913;-64
2023/03/26 03:46:33;;;;;;;;;;;9.10;99.90;;;;;;5024726;28;19967;-64
2023/03/26 03:48:58;;;;;;;;;;;9.10;99.90;;;;;;5030517;28;20005;-64
2023/03/26 03:51:24;;;;;;;;;;;9.10;99.90;;;;;;5029822;28;19928;-64
2023/03/26 03:53:49;;;;;;;;;;;9.00;99.90;;;;;;5028245;28;19917;-64
2023/03/26 03:56:17;;;;;;;;;;;9.00;99.90;;;;;;5025316;28;20334;-64
2023/03/26 03:58:45;;;;;;;;;;;9.00;99.90;;;;;;5031484;28;19913;-64
2023/03/26 04:01:12;;;;;;;;;;;8.90;99.90;;;;;;5027573;28;19921;-64
2023/03/26 04:03:38;;;;;;;;;;;8.90;99.90;;;;;;5029711;28;20176;-64
2023/03/26 04:06:05;;;;;;;;;;;8.90;99.90;;;;;;5021034;28;19925;-63
2023/03/26 04:08:31;;;;;;;;;;;8.90;99.90;;;;;;5026084;28;19928;-64
2023/03/26 04:10:56;;;;;;;;;;;8.80;99.90;;;;;;5027782;28;19913;-64
2023/03/26 04:13:22;;;;;;;;;;;8.80;99.90;;;;;;5030030;28;20476;-64
2023/03/26 04:15:47;;;;;;;;;;;8.90;99.90;;;;;;5028125;28;19980;-64
2023/03/26 04:18:13;;;;;;;;;;;8.80;99.90;;;;;;5026832;28;19916;-64
2023/03/26 04:20:40;;;;;;;;;;;8.60;99.90;;;;;;5027965;28;19913;-64
2023/03/26 04:23:07;;;;;;;;;;;8.50;99.90;;;;;;5029601;28;19919;-64
2023/03/26 04:25:35;;;;;;;;;;;8.50;99.90;;;;;;5026522;28;20001;-64
2023/03/26 04:28:05;;;;;;;;;;;8.40;99.90;;;;;;5026756;28;19959;-65
2023/03/26 04:30:32;;;;;;;;;;;8.40;99.90;;;;;;5027853;28;20328;-64
2023/03/26 04:32:59;;;;;;;;;;;8.40;99.90;;;;;;5027343;28;19924;-64
2023/03/26 04:35:25;;;;;;;;;;;8.40;99.90;;;;;;5026504;28;20011;-64
2023/03/26 04:37:51;;;;;;;;;;;8.40;99.90;;;;;;5026266;28;20004;-64
2023/03/26 04:40:20;;;;;;;;;;;8.40;99.90;;;;;;5027809;28;20387;-64
2023/03/26 04:42:46;;;;;;;;;;;8.40;99.90;;;;;;5026448;28;20013;-64
2023/03/26 04:45:12;;;;;;;;;;;8.40;99.90;;;;;;5024658;28;20349;-64
2023/03/26 04:47:38;;;;;;;;;;;8.40;99.90;;;;;;5026720;28;19913;-64
2023/03/26 04:50:08;;;;;;;;;;;8.40;99.90;;;;;;5027702;28;20029;-64
2023/03/26 04:52:33;;;;;;;;;;;8.40;99.90;;;;;;5028257;28;19979;-64
2023/03/26 04:54:59;;;;;;;;;;;8.40;99.90;;;;;;5026990;28;20330;-64
2023/03/26 04:57:27;;;;;;;;;;;8.40;99.90;;;;;;5028440;28;20424;-64
2023/03/26 04:59:53;;;;;;;;;;;8.50;99.90;;;;;;5028508;28;20013;-64
2023/03/26 05:02:19;;;;;;;;;;;8.50;99.90;;;;;;5029114;28;20330;-65
2023/03/26 05:04:44;;;;;;;;;;;8.50;99.90;;;;;;5028316;28;19979;-64
2023/03/26 05:07:15;;;;;;;;;;;8.50;99.90;;;;;;5028892;28;19974;-63
2023/03/26 05:09:40;;;;;;;;;;;8.50;99.90;;;;;;5028609;28;19913;-64
2023/03/26 05:12:06;;;;;;;;;;;8.60;99.90;;;;;;5027288;28;19932;-64
2023/03/26 05:14:31;;;;;;;;;;;8.50;99.90;;;;;;5026640;28;19914;-64
2023/03/26 05:16:57;;;;;;;;;;;8.50;99.90;;;;;;5029277;28;19917;-64
2023/03/26 05:19:23;;;;;;;;;;;8.40;99.90;;;;;;5025520;28;19917;-64
2023/03/26 05:21:48;;;;;;;;;;;8.50;99.90;;;;;;5027715;28;19937;-65
2023/03/26 05:24:13;;;;;;;;;;;8.50;99.90;;;;;;5027168;28;19944;-64
2023/03/26 05:26:39;;;;;;;;;;;8.50;99.90;;;;;;5026614;28;19921;-64
2023/03/26 05:29:04;;;;;;;;;;;8.50;99.90;;;;;;5024342;28;19913;-65
2023/03/26 05:31:30;;;;;;;;;;;8.50;99.90;;;;;;5027954;28;20502;-64
2023/03/26 05:33:56;;;;;;;;;;;8.50;99.90;;;;;;5024631;28;19967;-65
2023/03/26 05:36:22;;;;;;;;;;;8.50;99.90;;;;;;5027728;28;19987;-64
2023/03/26 05:38:48;;;;;;;;;;;8.50;99.90;;;;;;5029391;28;20407;-65
2023/03/26 05:41:14;;;;;;;;;;;8.50;99.90;;;;;;5027264;28;19913;-64
2023/03/26 05:43:40;;;;;;;;;;;8.50;99.90;;;;;;5027574;28;20061;-64
2023/03/26 05:46:06;;;;;;;;;;;8.50;99.90;;;;;;5027512;28;20003;-65
2023/03/26 05:48:32;;;;;;;;;;;8.40;99.90;;;;;;5029299;28;19913;-64
2023/03/26 05:50:57;;;;;;;;;;;8.40;99.90;;;;;;5029151;28;19921;-64
2023/03/26 05:53:24;;;;;;;;;;;8.50;99.90;;;;;;5029148;28;20013;-64
2023/03/26 05:55:54;;;;;;;;;;;8.50;99.90;;;;;;5025648;28;20004;-64
2023/03/26 05:58:20;;;;;;;;;;;8.50;99.90;;;;;;5024141;28;20000;-64
2023/03/26 06:00:47;;;;;;;;;;;8.40;99.90;;;;;;5028010;28;20016;-64
2023/03/26 06:03:13;;;;;;;;;;;8.40;99.90;;;;;;5028328;28;19917;-63
2023/03/26 06:05:39;;;;;;;;;;;8.50;99.90;;;;;;5027632;28;20345;-64
2023/03/26 06:08:05;;;;;;;;;;;8.50;99.90;;;;;;5027994;28;19913;-64
2023/03/26 06:10:31;;;;;;;;;;;8.50;99.90;;;;;;5027493;28;19913;-64
2023/03/26 06:12:56;;;;;;;;;;;8.50;99.90;;;;;;5027645;28;19924;-63
2023/03/26 06:15:22;;;;;;;;;;;8.50;99.90;;;;;;5025474;28;21966;-64
2023/03/26 06:17:47;;;;;;;;;;;8.40;99.90;;;;;;5026772;28;19913;-64
2023/03/26 06:20:13;;;;;;;;;;;8.40;99.90;;;;;;5029791;28;19924;-65
2023/03/26 06:22:39;;;;;;;;;;;8.40;99.90;;;;;;5026278;28;20426;-65
2023/03/26 06:25:04;;;;;;;;;;;8.50;99.90;;;;;;5026611;28;19939;-65
2023/03/26 06:27:30;;;;;;;;;;;8.50;99.90;;;;;;5027306;28;19978;-65
2023/03/26 06:29:55;;;;;;;;;;;8.40;99.90;;;;;;5029152;28;19920;-65
2023/03/26 06:32:21;;;;;;;;;;;8.40;99.90;;;;;;5030891;28;19962;-65
2023/03/26 06:34:46;;;;;;;;;;;8.40;99.90;;;;;;5029197;28;20015;-65
2023/03/26 06:37:12;;;;;;;;;;;8.40;99.90;;;;;;5029486;28;20063;-65
2023/03/26 06:39:37;;;;;;;;;;;8.50;99.90;;;;;;5031066;28;19928;-65
2023/03/26 06:42:02;;;;;;;;;;;8.50;99.90;;;;;;5032696;28;19917;-65
2023/03/26 06:44:28;;;;;;;;;;;8.50;99.90;;;;;;5026614;28;19940;-65
2023/03/26 06:46:53;;;;;;;;;;;8.50;99.90;;;;;;5028430;28;19999;-65
2023/03/26 06:49:19;;;;;;;;;;;8.60;99.90;;;;;;5026071;28;19948;-65
2023/03/26 06:51:46;;;;;;;;;;;8.60;99.90;;;;;;5030851;28;19921;-62
2023/03/26 06:54:11;;;;;;;;;;;8.60;99.90;;;;;;5028156;28;19917;-65
2023/03/26 06:56:37;;;;;;;;;;;8.60;99.90;;;;;;5028218;28;19925;-65
2023/03/26 06:59:02;;;;;;;;;;;8.60;99.90;;;;;;5027559;28;19917;-65
2023/03/26 07:01:28;;;;;;;;;;;8.60;99.90;;;;;;5028652;28;19917;-65
2023/03/26 07:03:53;;;;;;;;;;;8.60;99.90;;;;;;5024402;28;19920;-65
2023/03/26 07:06:19;;;;;;;;;;;8.70;99.90;;;;;;5030076;28;20426;-65
2023/03/26 07:08:44;;;;;;;;;;;8.60;99.90;;;;;;5028108;28;19917;-65
2023/03/26 07:11:10;;;;;;;;;;;8.60;99.90;;;;;;5029409;28;20005;-65
2023/03/26 07:13:36;;;;;;;;;;;8.50;99.90;;;;;;5030877;28;19925;-66
2023/03/26 07:16:02;;;;;;;;;;;8.60;99.90;;;;;;5030094;28;19913;-65
2023/03/26 07:18:27;;;;;;;;;;;8.60;99.90;;;;;;5026905;28;19932;-64
2023/03/26 07:20:53;;;;;;;;;;;8.60;99.90;;;;;;5033471;28;19975;-65
2023/03/26 07:23:20;;;;;;;;;;;8.60;99.90;;;;;;5033140;28;19971;-64
2023/03/26 07:25:47;;;;;;;;;;;8.60;99.90;;;;;;5031682;28;20371;-64
2023/03/26 07:28:24;;;;;;;;;;;8.60;99.90;;;;;;5032478;28;19917;-65
2023/03/26 07:30:59;;;;;;;;;;;8.60;99.90;;;;;;5031594;28;19944;-65
2023/03/26 07:33:47;;;;;;;;;;;8.60;99.90;;;;;;5028858;28;20398;-65
2023/03/26 07:36:31;;;;;;;;;;;8.60;99.90;;;;;;5031751;28;19927;-57
2023/03/26 07:39:15;;;;;;;;;;;8.70;99.90;;;;;;5026015;28;19913;-57
2023/03/26 07:41:44;;;;;;;;;;;8.60;99.90;;;;;;5032748;28;19955;-57
2023/03/26 07:44:13;;;;;;;;;;;8.60;99.90;;;;;;5029190;28;19976;-55
2023/03/26 07:46:40;;;;;;;;;;;8.50;99.90;;;;;;5030648;28;19920;-57
2023/03/26 07:49:05;;;;;;;;;;;8.60;99.90;;;;;;5033145;28;19913;-55
2023/03/26 07:51:31;;;;;;;;;;;8.60;99.90;;;;;;5031626;28;19913;-56
2023/03/26 07:53:59;;;;;;;;;;;8.60;99.90;;;;;;5031937;28;19925;-55
2023/03/26 07:56:24;;;;;;;;;;;8.60;99.90;;;;;;5030623;28;20386;-56
2023/03/26 07:58:50;;;;;;;;;;;8.70;99.90;;;;;;5031225;28;19967;-55
2023/03/26 08:01:18;;;;;;;;;;;8.60;99.90;;;;;;5029859;28;20279;-54
2023/03/26 08:03:56;;;;;;;;;;;8.60;99.90;;;;;;5031684;28;20337;-56
2023/03/26 08:06:35;;;;;;;;;;;8.50;99.90;;;;;;5032487;28;19909;-55
2023/03/26 08:09:03;;;;;;;;;;;8.60;99.90;;;;;;5031784;28;19944;-57
2023/03/26 08:11:52;;;;;;;;;;;8.60;99.90;;;;;;5027085;28;19939;-55
2023/03/26 08:14:18;;;;;;;;;;;8.60;99.90;;;;;;5029877;28;19916;-57
2023/03/26 08:16:46;;;;;;;;;;;8.50;99.90;;;;;;5026557;28;19917;-54
2023/03/26 08:19:31;;;;;;;;;;;8.60;99.90;;;;;;5037049;28;19921;-55
2023/03/26 08:22:01;;;;;;;;;;;8.60;99.90;;;;;;5030439;28;20000;-55
2023/03/26 08:24:42;;;;;;;;;;;8.60;99.90;;;;;;5032790;28;19913;-55
2023/03/26 08:27:08;;;;;;;;;;;8.70;99.90;;;;;;5022504;28;19913;-60
2023/03/26 08:29:33;;;;;;;;;;;8.60;99.90;;;;;;5020549;28;19971;-53
2023/03/26 08:32:00;;;;;;;;;;;8.60;99.90;;;;;;5025258;28;19917;-55
2023/03/26 08:34:26;;;;;;;;;;;8.60;99.90;;;;;;5026777;28;20000;-55
2023/03/26 08:36:51;;;;;;;;;;;8.70;99.90;;;;;;5025563;28;20017;-55
2023/03/26 08:39:17;;;;;;;;;;;8.70;99.90;;;;;;5025124;28;19920;-54
2023/03/26 08:41:45;;;;;;;;;;;8.70;99.90;;;;;;5022724;28;20599;-58
2023/03/26 08:44:26;;;;;;;;;;;8.70;99.90;;;;;;5027056;28;19967;-57
2023/03/26 08:46:54;;;;;;;;;;;8.60;99.90;;;;;;5024966;28;19920;-55
2023/03/26 08:49:42;;;;;;;;;;;8.70;99.90;;;;;;5026056;28;20286;-56
2023/03/26 08:52:14;;;;;;;;;;;8.60;99.90;;;;;;4992647;28;20322;-56
2023/03/26 08:54:47;;;;;;;;;;;8.70;99.90;;;;;;5020137;28;21034;-57
2023/03/26 08:57:19;;;;;;;;;;;8.70;99.90;;;;;;5024157;28;19931;-59
2023/03/26 09:00:17;;;;;;;;;;;8.70;99.90;;;;;;5030045;28;20406;-57
2023/03/26 09:02:45;;;;;;;;;;;8.70;99.90;;;;;;4993684;28;19974;-55
2023/03/26 09:05:31;;;;;;;;;;;8.70;99.90;;;;;;5027496;28;19920;-58
2023/03/26 09:08:12;;;;;;;;;;;8.60;99.90;;;;;;5031183;28;20401;-57
2023/03/26 09:10:48;;;;;;;;;;;8.70;99.90;;;;;;5023813;28;19925;-54
2023/03/26 09:13:14;;;;;;;;;;;8.60;99.90;;;;;;5022716;28;19928;-55
2023/03/26 09:15:57;;;;;;;;;;;8.60;99.90;;;;;;5018016;28;19942;-55
2023/03/26 09:18:32;;;;;;;;;;;8.60;99.90;;;;;;5019959;28;19916;-58
2023/03/26 09:21:16;;;;;;;;;;;8.50;99.90;;;;;;5022576;28;19925;-57
2023/03/26 09:24:00;;;;;;;;;;;8.60;99.90;;;;;;5018373;28;19963;-54
2023/03/26 09:26:36;;;;;;;;;;;8.50;99.90;;;;;;5034297;28;19963;-54
2023/03/26 09:29:20;;;;;;;;;;;8.40;99.90;;;;;;5026538;28;19928;-56
2023/03/26 09:31:49;;;;;;;;;;;8.40;99.90;;;;;;5019066;28;20429;-57
2023/03/26 09:34:14;;;;;;;;;;;8.50;99.90;;;;;;5025183;28;20379;-57
2023/03/26 09:36:48;;;;;;;;;;;8.50;99.90;;;;;;5022871;28;19920;-54
2023/03/26 09:39:20;;;;;;;;;;;8.60;99.90;;;;;;5022754;28;20291;-56
2023/03/26 09:41:58;;;;;;;;;;;8.60;99.90;;;;;;5027136;28;20298;-56
2023/03/26 09:44:27;;;;;;;;;;;8.60;99.90;;;;;;5023992;28;19943;-55
2023/03/26 09:47:01;;;;;;;;;;;8.60;99.90;;;;;;5017057;28;20274;-58
2023/03/26 09:49:39;;;;;;;;;;;8.60;99.90;;;;;;5041680;28;19913;-58
2023/03/26 09:52:15;;;;;;;;;;;8.40;99.90;;;;;;5024364;28;19922;-55
2023/03/26 09:54:53;;;;;;;;;;;8.50;99.90;;;;;;5024437;28;19936;-57
2023/03/26 09:57:27;;;;;;;;;;;8.40;99.90;;;;;;5026014;28;19917;-55
2023/03/26 10:00:00;;;;;;;;;;;8.50;99.90;;;;;;5023114;28;20081;-57
2023/03/26 10:02:51;;;;;;;;;;;8.50;99.90;;;;;;5025464;28;21766;-55
2023/03/26 10:05:33;;;;;;;;;;;8.40;99.90;;;;;;5024139;28;20368;-57
2023/03/26 10:08:19;;;;;;;;;;;8.50;99.90;;;;;;5026973;28;19919;-58
2023/03/26 10:11:03;;;;;;;;;;;8.60;99.90;;;;;;5030632;28;19928;-55
2023/03/26 10:13:41;;;;;;;;;;;8.70;99.90;;;;;;5027759;28;19945;-58
2023/03/26 10:16:15;;;;;;;;;;;8.90;99.90;;;;;;5024963;28;20719;-58
2023/03/26 10:18:41;;;;;;;;;;;8.90;99.90;;;;;;5028115;28;20283;-58
2023/03/26 10:21:10;;;;;;;;;;;8.90;99.90;;;;;;5024818;28;19921;-57
2023/03/26 10:23:42;;;;;;;;;;;8.80;99.90;;;;;;5023322;28;19979;-59
2023/03/26 10:26:26;;;;;;;;;;;8.90;99.90;;;;;;5021182;28;19921;-54
2023/03/26 10:29:09;;;;;;;;;;;8.90;99.90;;;;;;5028711;28;20008;-55
2023/03/26 10:31:54;;;;;;;;;;;9.00;99.90;;;;;;5031516;28;19920;-58
2023/03/26 10:34:35;;;;;;;;;;;8.80;99.90;;;;;;5028570;28;19936;-58
2023/03/26 10:37:03;;;;;;;;;;;8.90;99.90;;;;;;5028860;28;19913;-58
2023/03/26 10:40:08;;;;;;;;;;;9.00;99.90;;;;;;5030386;28;19921;-55
2023/03/26 10:42:52;;;;;;;;;;;9.00;99.90;;;;;;5024665;28;19964;-58
2023/03/26 10:45:24;;;;;;;;;;;9.20;99.90;;;;;;5017896;28;19935;-55
2023/03/26 10:48:02;;;;;;;;;;;9.30;99.90;;;;;;5024661;28;19929;-57
2023/03/26 10:50:46;;;;;;;;;;;9.40;99.90;;;;;;5029690;28;19920;-58
2023/03/26 10:53:33;;;;;;;;;;;9.40;99.90;;;;;;5031291;28;19921;-58
2023/03/26 10:56:12;;;;;;;;;;;9.20;99.90;;;;;;5026580;28;20012;-55
2023/03/26 10:58:39;;;;;;;;;;;9.30;99.90;;;;;;5029812;28;19948;-58
2023/03/26 11:01:09;;;;;;;;;;;9.20;99.90;;;;;;5028446;28;20381;-58
2023/03/26 11:03:40;;;;;;;;;;;9.20;99.90;;;;;;5030388;28;20387;-56
2023/03/26 11:06:11;;;;;;;;;;;9.20;99.90;;;;;;5029790;28;19923;-58
2023/03/26 11:08:37;;;;;;;;;;;9.20;99.90;;;;;;5025499;28;19951;-56
2023/03/26 11:11:02;;;;;;;;;;;9.20;99.90;;;;;;5025472;28;19948;-57
2023/03/26 11:13:37;;;;;;;;;;;9.30;99.90;;;;;;5024768;28;19999;-58
2023/03/26 11:16:04;;;;;;;;;;;9.40;99.90;;;;;;5021798;28;19913;-56
2023/03/26 11:18:43;;;;;;;;;;;9.50;99.90;;;;;;5028348;28;20359;-56
2023/03/26 11:21:21;;;;;;;;;;;9.50;99.90;;;;;;5033242;28;19943;-57
2023/03/26 11:23:57;;;;;;;;;;;9.50;99.90;;;;;;5027818;28;19913;-57
2023/03/26 11:26:25;;;;;;;;;;;9.60;99.90;;;;;;5025056;28;19913;-58
2023/03/26 11:29:02;;;;;;;;;;;9.60;99.90;;;;;;5021526;28;20302;-53
2023/03/26 11:31:27;;;;;;;;;;;9.60;99.90;;;;;;5021791;28;19960;-57
2023/03/26 11:33:55;;;;;;;;;;;9.60;99.90;;;;;;5025971;28;19960;-66
2023/03/26 11:36:30;;;;;;;;;;;9.70;99.90;;;;;;5025121;28;20000;-65
2023/03/26 11:38:57;;;;;;;;;;;9.80;99.90;;;;;;5027499;28;19917;-66
2023/03/26 11:41:24;;;;;;;;;;;9.80;99.90;;;;;;5029129;28;19917;-65
2023/03/26 11:43:53;;;;;;;;;;;9.80;99.90;;;;;;5026839;28;20350;-65
2023/03/26 11:46:20;;;;;;;;;;;9.80;99.90;;;;;;5025660;28;19917;-65
2023/03/26 11:48:47;;;;;;;;;;;9.70;99.90;;;;;;5025152;28;19921;-66
2023/03/26 11:51:22;;;;;;;;;;;9.80;99.90;;;;;;5018101;28;19924;-65
2023/03/26 11:53:48;;;;;;;;;;;9.60;99.90;;;;;;5027003;28;19964;-66
2023/03/26 11:56:19;;;;;;;;;;;9.60;99.90;;;;;;5023180;28;19967;-65
2023/03/26 11:58:53;;;;;;;;;;;9.70;99.90;;;;;;5028435;28;20382;-66
2023/03/26 12:01:21;;;;;;;;;;;9.90;99.90;;;;;;5030470;28;19917;-65
2023/03/26 12:04:05;;;;;;;;;;;10.00;99.90;;;;;;5025242;28;19913;-66
2023/03/26 12:06:31;;;;;;;;;;;10.00;99.90;;;;;;5026008;28;19913;-65
2023/03/26 12:08:57;;;;;;;;;;;10.20;99.90;;;;;;5026464;28;20394;-61
2023/03/26 12:11:27;;;;;;;;;;;10.20;99.90;;;;;;5026006;28;19921;-59
2023/03/26 12:14:02;;;;;;;;;;;10.20;99.90;;;;;;5026401;28;19917;-60
2023/03/26 12:16:28;;;;;;;;;;;10.30;99.90;;;;;;5036839;28;20434;-60
2023/03/26 12:18:59;;;;;;;;;;;10.40;99.90;;;;;;5025134;28;19921;-60
2023/03/26 12:21:24;;;;;;;;;;;10.50;99.90;;;;;;5025637;28;19928;-60
2023/03/26 12:23:55;;;;;;;;;;;10.40;99.90;;;;;;5020845;28;20388;-60
2023/03/26 12:26:45;;;;;;;;;;;10.50;99.90;;;;;;5023866;28;19913;-56
2023/03/26 12:29:12;;;;;;;;;;;10.40;99.90;;;;;;5022784;28;19920;-56
2023/03/26 12:31:43;;;;;;;;;;;10.30;99.90;;;;;;5027927;28;19967;-59
2023/03/26 12:34:14;;;;;;;;;;;10.20;99.90;;;;;;5026073;28;19921;-59
2023/03/26 12:36:47;;;;;;;;;;;10.20;99.90;;;;;;5026126;28;20367;-59
2023/03/26 12:39:32;;;;;;;;;;;10.00;99.90;;;;;;5026332;28;20055;-61
2023/03/26 12:41:59;;;;;;;;;;;9.70;99.90;;;;;;5022477;28;19913;-60
2023/03/26 12:44:24;;;;;;;;;;;9.40;99.90;;;;;;5022655;28;19913;-58
2023/03/26 12:46:52;;;;;;;;;;;9.40;99.90;;;;;;5024204;28;20302;-62
2023/03/26 12:49:18;;;;;;;;;;;9.20;99.90;;;;;;5030206;28;19913;-58
2023/03/26 12:51:52;;;;;;;;;;;9.20;99.90;;;;;;5025739;28;19995;-60
2023/03/26 12:54:29;;;;;;;;;;;9.00;99.90;;;;;;5022133;28;19927;-59
2023/03/26 12:57:15;;;;;;;;;;;8.90;99.90;;;;;;5025573;28;19925;-59
2023/03/26 12:59:43;;;;;;;;;;;8.90;99.90;;;;;;5025207;28;20063;-57
2023/03/26 13:02:24;;;;;;;;;;;8.80;99.90;;;;;;5023466;28;20038;-60
2023/03/26 13:04:56;;;;;;;;;;;8.80;99.90;;;;;;5024608;28;20276;-59
2023/03/26 13:07:25;;;;;;;;;;;8.80;99.90;;;;;;5025851;28;19917;-59
2023/03/26 13:10:09;;;;;;;;;;;8.80;99.90;;;;;;5026221;28;19935;-58
2023/03/26 13:12:50;;;;;;;;;;;8.70;99.90;;;;;;5025964;28;19963;-58
2023/03/26 13:15:27;;;;;;;;;;;8.70;99.90;;;;;;5022831;28;19917;-58
2023/03/26 13:17:55;;;;;;;;;;;8.60;99.90;;;;;;5018779;28;19913;-58
2023/03/26 13:20:23;;;;;;;;;;;8.60;99.90;;;;;;5020370;28;19929;-60
2023/03/26 13:22:52;;;;;;;;;;;8.70;99.90;;;;;;5022564;28;19964;-56
2023/03/26 13:25:47;;;;;;;;;;;8.70;99.90;;;;;;5025013;28;20370;-57
2023/03/26 13:28:13;;;;;;;;;;;8.60;99.90;;;;;;5019321;28;19917;-57
2023/03/26 13:30:57;;;;;;;;;;;8.60;99.90;;;;;;5023069;28;20008;-61
2023/03/26 13:33:23;;;;;;;;;;;8.50;99.90;;;;;;5023497;28;19924;-61
2023/03/26 13:35:53;;;;;;;;;;;8.50;99.90;;;;;;5025521;28;19918;-62
2023/03/26 13:38:34;;;;;;;;;;;8.60;99.90;;;;;;5026514;28;19966;-57
2023/03/26 13:41:18;;;;;;;;;;;8.50;99.90;;;;;;5025799;28;19955;-57
2023/03/26 13:43:46;;;;;;;;;;;8.50;99.90;;;;;;5022067;28;19917;-59
2023/03/26 13:46:14;;;;;;;;;;;8.60;99.90;;;;;;5022720;28;20387;-58
2023/03/26 13:48:46;;;;;;;;;;;8.60;99.90;;;;;;5025079;28;19913;-59
2023/03/26 13:51:24;;;;;;;;;;;8.60;99.90;;;;;;5027554;28;19917;-59
2023/03/26 13:53:53;;;;;;;;;;;8.60;99.90;;;;;;5025643;28;19979;-59
2023/03/26 13:56:22;;;;;;;;;;;8.60;99.90;;;;;;5025255;28;19936;-59
2023/03/26 13:58:47;;;;;;;;;;;8.70;99.90;;;;;;5027671;28;19913;-59
2023/03/26 14:01:15;;;;;;;;;;;8.70;99.90;;;;;;5022793;28;19932;-58
2023/03/26 14:03:50;;;;;;;;;;;8.70;99.90;;;;;;5023214;28;21234;-58
2023/03/26 14:06:24;;;;;;;;;;;8.80;99.90;;;;;;5023110;28;19920;-58
2023/03/26 14:08:56;;;;;;;;;;;8.90;99.90;;;;;;5022562;28;19928;-61
2023/03/26 14:11:30;;;;;;;;;;;9.00;99.90;;;;;;5025908;28;20364;-62
2023/03/26 14:14:02;;;;;;;;;;;9.00;99.90;;;;;;5025728;28;19917;-59
2023/03/26 14:16:30;;;;;;;;;;;9.10;99.90;;;;;;5022183;28;20380;-58
2023/03/26 14:19:03;;;;;;;;;;;9.20;99.90;;;;;;5022141;28;19920;-59
2023/03/26 14:22:07;;;;;;;;;;;9.20;99.90;;;;;;5028780;28;20323;-60
2023/03/26 14:24:47;;;;;;;;;;;9.20;99.90;;;;;;4963665;28;20004;-58
2023/03/26 14:27:17;;;;;;;;;;;9.30;99.90;;;;;;4961005;28;22171;-60
2023/03/26 14:29:45;;;;;;;;;;;9.30;99.90;;;;;;4994538;28;19963;-56
2023/03/26 14:32:28;;;;;;;;;;;9.40;99.90;;;;;;5022557;28;19913;-57
2023/03/26 14:34:56;;;;;;;;;;;9.30;99.90;;;;;;5025199;28;19921;-58
2023/03/26 14:37:22;;;;;;;;;;;9.50;99.90;;;;;;5024801;28;20350;-59
2023/03/26 14:39:47;;;;;;;;;;;9.50;99.90;;;;;;5023243;28;20000;-60
2023/03/26 14:42:37;;;;;;;;;;;9.50;99.90;;;;;;5021780;28;20375;-57
2023/03/26 14:45:02;;;;;;;;;;;9.50;99.90;;;;;;5026090;28;19921;-60
2023/03/26 14:47:28;;;;;;;;;;;9.60;99.90;;;;;;5026140;28;19913;-58